Zim Pacific — A8OZ4 — position and weather

sailwx.info

Track history (hours):
 
Tides and Currents Weather Stations Pressure Air Temp Water Temp Dewpoint Dewpoint Depression Visibility Wind Speed Wind Dir Waves Ship Positions

Zim Pacific

Last reported at 2014-Oct-22 22:17 UTC. Time now 2014-Oct-22 23:10 UTC.
Position N 31°22' E 121°36'.

Length 254 m; draft 10.2 m.

Type: Ship. MMSI: 636016512.

Date/timePositionNaut miles runAvg speedWind from/ knotsBaromVisibWave heightAir tempDewpointWater temp
2014-Oct-22 22:17N 31°22' E 121°36'0 0.0
2014-Oct-22 21:28N 31°22' E 121°36'0 0.0
2014-Oct-22 19:25N 31°22' E 121°36'0 0.0
2014-Oct-22 18:16N 31°22' E 121°36'0 0.0
2014-Oct-22 17:28N 31°22' E 121°36'0 0.0
2014-Oct-22 16:16N 31°22' E 121°36'0 0.0
2014-Oct-22 14:32N 31°22' E 121°36'0 0.0
2014-Oct-22 13:32N 31°22' E 121°36'0 0.0
2014-Oct-22 12:27N 31°22' E 121°36'0 0.0
2014-Oct-22 11:30N 31°22' E 121°36'0 0.0
2014-Oct-22 10:32N 31°22' E 121°36'0 0.0
2014-Oct-22 09:19N 31°22' E 121°36'0 0.0
2014-Oct-22 08:10N 31°22' E 121°36'1 1.4
2014-Oct-22 07:33N 31°22' E 121°37'10 8.5
2014-Oct-22 06:22N 31°18' E 121°47'36 8.9
2014-Oct-22 02:15N 31°06' E 122°28'29 1.5
2014-Oct-21 06:31N 31°03' E 123°02'18 9.4
2014-Oct-21 04:33N 30°49' E 123°15'1311.5
2014-Oct-21 03:24N 30°36' E 123°13'1012.0
2014-Oct-21 02:33N 30°25' E 123°12'1211.9
2014-Oct-21 01:33N 30°14' E 123°10'1313.1
2014-Oct-21 00:33N 30°00' E 123°09'1313.2
2014-Oct-20 23:32N 29°48' E 123°05'1713.2
2014-Oct-20 22:13N 29°31' E 122°60'36611.8
2014-Oct-19 15:08N 24°29' E 119°06'4011.1
2014-Oct-19 11:31N 24°13' E 118°27'1010.7
2014-Oct-19 10:33N 24°15' E 118°15'1110.5
2014-Oct-19 09:32N 24°23' E 118°08'9 9.0
2014-Oct-19 08:30N 24°27' E 117°59'0 0.1
2014-Oct-19 07:29N 24°27' E 117°59'0 0.0
2014-Oct-19 06:29N 24°27' E 117°59'0 0.0
2014-Oct-19 03:09N 24°27' E 117°59'0 0.0
2014-Oct-19 01:26N 24°27' E 117°59'0 0.0
2014-Oct-19 00:10N 24°27' E 117°59'0 0.0
2014-Oct-18 23:28N 24°27' E 117°59'0 0.0
2014-Oct-18 22:09N 24°27' E 117°59'0 0.0
2014-Oct-18 21:08N 24°27' E 117°59'0 0.0
2014-Oct-18 20:33N 24°27' E 117°59'0 0.0
2014-Oct-18 19:32N 24°27' E 117°59'0 0.0
2014-Oct-18 18:29N 24°27' E 117°59'2 1.7
2014-Oct-18 17:33N 24°27' E 118°00'10 9.7
2014-Oct-18 16:32N 24°21' E 118°09'1010.1
2014-Oct-18 15:33N 24°14' E 118°16'5 4.4
2014-Oct-18 14:30N 24°13' E 118°22'0 0.0
2014-Oct-18 09:21N 24°13' E 118°21'0 0.0
2014-Oct-18 06:14N 24°13' E 118°22'0 0.1
2014-Oct-18 05:14N 24°13' E 118°21'0 0.0
2014-Oct-18 02:24N 24°13' E 118°22'0 0.0
2014-Oct-18 01:12N 24°13' E 118°22'0 0.0
2014-Oct-17 23:21N 24°13' E 118°22'0 0.1
2014-Oct-17 22:29N 24°13' E 118°22'0 0.0
2014-Oct-17 21:06N 24°13' E 118°22'0 0.0
2014-Oct-17 20:28N 24°13' E 118°22'0 0.0
2014-Oct-17 18:27N 24°13' E 118°22'0 0.0
2014-Oct-17 16:32N 24°13' E 118°22'0 0.0
2014-Oct-17 15:26N 24°13' E 118°22'0 0.0
2014-Oct-17 14:11N 24°13' E 118°22'0 0.0
2014-Oct-17 09:29N 24°13' E 118°21'0 0.0
2014-Oct-17 07:04N 24°13' E 118°22'0 0.0
2014-Oct-17 05:13N 24°13' E 118°22'0 0.1
2014-Oct-17 04:31N 24°13' E 118°22'0 0.0
2014-Oct-17 03:26N 24°13' E 118°22'0 0.0
2014-Oct-17 02:26N 24°13' E 118°22'0 0.0
2014-Oct-17 00:13N 24°13' E 118°22'0 0.0
2014-Oct-16 23:06N 24°13' E 118°22'0 0.0
2014-Oct-16 22:19N 24°13' E 118°22'0 0.0
2014-Oct-16 21:28N 24°13' E 118°22'0 0.0
2014-Oct-16 20:33N 24°13' E 118°22'0 0.0
2014-Oct-16 19:33N 24°13' E 118°22'0 0.0
2014-Oct-16 18:18N 24°13' E 118°22'0 0.0
2014-Oct-16 16:32N 24°13' E 118°22'0 0.0
2014-Oct-16 09:23N 24°13' E 118°21'1 0.9
2014-Oct-16 08:31N 24°12' E 118°22'8 8.5
2014-Oct-16 07:33N 24°04' E 118°20'1110.6
2014-Oct-16 06:33N 23°55' E 118°15'1111.0
2014-Oct-16 05:32N 23°46' E 118°07'1411.2
2014-Oct-16 04:18N 23°35' E 117°58'  
Track history (hours):
 
Tides and Currents Weather Stations Pressure Air Temp Water Temp Dewpoint Dewpoint Depression Visibility Wind Speed Wind Dir Waves Ship Positions

Zim Pacific

Last reported at 2014-Oct-22 22:17 UTC. Time now 2014-Oct-22 23:10 UTC.
Position N 31°22' E 121°36'.

Length 254 m; draft 10.2 m.

Type: Ship. MMSI: 636016512.

Date/timePositionNaut miles runAvg speedWind from/ knotsBaromVisibWave heightAir tempDewpointWater temp
2014-Oct-22 22:17N 31°22' E 121°36'0 0.0
2014-Oct-22 21:28N 31°22' E 121°36'0 0.0
2014-Oct-22 19:25N 31°22' E 121°36'0 0.0
2014-Oct-22 18:16N 31°22' E 121°36'0 0.0
2014-Oct-22 17:28N 31°22' E 121°36'0 0.0
2014-Oct-22 16:16N 31°22' E 121°36'0 0.0
2014-Oct-22 14:32N 31°22' E 121°36'0 0.0
2014-Oct-22 13:32N 31°22' E 121°36'0 0.0
2014-Oct-22 12:27N 31°22' E 121°36'0 0.0
2014-Oct-22 11:30N 31°22' E 121°36'0 0.0
2014-Oct-22 10:32N 31°22' E 121°36'0 0.0
2014-Oct-22 09:19N 31°22' E 121°36'0 0.0
2014-Oct-22 08:10N 31°22' E 121°36'1 1.4
2014-Oct-22 07:33N 31°22' E 121°37'10 8.5
2014-Oct-22 06:22N 31°18' E 121°47'36 8.9
2014-Oct-22 02:15N 31°06' E 122°28'29 1.5
2014-Oct-21 06:31N 31°03' E 123°02'18 9.4
2014-Oct-21 04:33N 30°49' E 123°15'1311.5
2014-Oct-21 03:24N 30°36' E 123°13'1012.0
2014-Oct-21 02:33N 30°25' E 123°12'1211.9
2014-Oct-21 01:33N 30°14' E 123°10'1313.1
2014-Oct-21 00:33N 30°00' E 123°09'1313.2
2014-Oct-20 23:32N 29°48' E 123°05'1713.2
2014-Oct-20 22:13N 29°31' E 122°60'36611.8
2014-Oct-19 15:08N 24°29' E 119°06'4011.1
2014-Oct-19 11:31N 24°13' E 118°27'1010.7
2014-Oct-19 10:33N 24°15' E 118°15'1110.5
2014-Oct-19 09:32N 24°23' E 118°08'9 9.0
2014-Oct-19 08:30N 24°27' E 117°59'0 0.1
2014-Oct-19 07:29N 24°27' E 117°59'0 0.0
2014-Oct-19 06:29N 24°27' E 117°59'0 0.0
2014-Oct-19 03:09N 24°27' E 117°59'0 0.0
2014-Oct-19 01:26N 24°27' E 117°59'0 0.0
2014-Oct-19 00:10N 24°27' E 117°59'0 0.0
2014-Oct-18 23:28N 24°27' E 117°59'0 0.0
2014-Oct-18 22:09N 24°27' E 117°59'0 0.0
2014-Oct-18 21:08N 24°27' E 117°59'0 0.0
2014-Oct-18 20:33N 24°27' E 117°59'0 0.0
2014-Oct-18 19:32N 24°27' E 117°59'0 0.0
2014-Oct-18 18:29N 24°27' E 117°59'2 1.7
2014-Oct-18 17:33N 24°27' E 118°00'10 9.7
2014-Oct-18 16:32N 24°21' E 118°09'1010.1
2014-Oct-18 15:33N 24°14' E 118°16'5 4.4
2014-Oct-18 14:30N 24°13' E 118°22'0 0.0
2014-Oct-18 09:21N 24°13' E 118°21'0 0.0
2014-Oct-18 06:14N 24°13' E 118°22'0 0.1
2014-Oct-18 05:14N 24°13' E 118°21'0 0.0
2014-Oct-18 02:24N 24°13' E 118°22'0 0.0
2014-Oct-18 01:12N 24°13' E 118°22'0 0.0
2014-Oct-17 23:21N 24°13' E 118°22'0 0.1
2014-Oct-17 22:29N 24°13' E 118°22'0 0.0
2014-Oct-17 21:06N 24°13' E 118°22'0 0.0
2014-Oct-17 20:28N 24°13' E 118°22'0 0.0
2014-Oct-17 18:27N 24°13' E 118°22'0 0.0
2014-Oct-17 16:32N 24°13' E 118°22'0 0.0
2014-Oct-17 15:26N 24°13' E 118°22'0 0.0
2014-Oct-17 14:11N 24°13' E 118°22'0 0.0
2014-Oct-17 09:29N 24°13' E 118°21'0 0.0
2014-Oct-17 07:04N 24°13' E 118°22'0 0.0
2014-Oct-17 05:13N 24°13' E 118°22'0 0.1
2014-Oct-17 04:31N 24°13' E 118°22'0 0.0
2014-Oct-17 03:26N 24°13' E 118°22'0 0.0
2014-Oct-17 02:26N 24°13' E 118°22'0 0.0
2014-Oct-17 00:13N 24°13' E 118°22'0 0.0
2014-Oct-16 23:06N 24°13' E 118°22'0 0.0
2014-Oct-16 22:19N 24°13' E 118°22'0 0.0
2014-Oct-16 21:28N 24°13' E 118°22'0 0.0
2014-Oct-16 20:33N 24°13' E 118°22'0 0.0
2014-Oct-16 19:33N 24°13' E 118°22'0 0.0
2014-Oct-16 18:18N 24°13' E 118°22'0 0.0
2014-Oct-16 16:32N 24°13' E 118°22'0 0.0
2014-Oct-16 09:23N 24°13' E 118°21'1 0.9
2014-Oct-16 08:31N 24°12' E 118°22'8 8.5
2014-Oct-16 07:33N 24°04' E 118°20'1110.6
2014-Oct-16 06:33N 23°55' E 118°15'1111.0
2014-Oct-16 05:32N 23°46' E 118°07'1411.2
2014-Oct-16 04:18N 23°35' E 117°58'  

Dump ship's entire track history